createdAt,value
2023-04-13T00:00:06.950Z,6.22
2023-04-13T00:01:07.183Z,6.21
2023-04-13T00:02:08.367Z,6.21
2023-04-13T00:03:07.914Z,6.21
2023-04-13T00:04:07.858Z,6.22
2023-04-13T00:05:08.058Z,6.22
2023-04-13T00:06:09.873Z,6.25
2023-04-13T00:07:10.509Z,6.25
2023-04-13T00:08:10.836Z,6.22
2023-04-13T00:09:09.045Z,6.18
2023-04-13T00:10:09.277Z,6.18
2023-04-13T00:11:09.432Z,6.25
2023-04-13T00:12:10.525Z,6.26
2023-04-13T00:13:12.316Z,6.29
2023-04-13T00:14:10.122Z,6.30
2023-04-13T00:15:10.474Z,6.28
2023-04-13T00:16:12.661Z,6.28
2023-04-13T00:17:10.892Z,6.19
2023-04-13T00:18:11.864Z,6.21
2023-04-13T00:19:12.494Z,6.14
2023-04-13T00:21:25.961Z,6.11
2023-04-13T00:22:26.649Z,6.11
2023-04-13T00:23:26.325Z,6.13
2023-04-13T00:24:28.031Z,6.14
2023-04-13T00:25:26.756Z,6.16
2023-04-13T00:26:27.031Z,6.18
2023-04-13T00:27:28.729Z,6.18
2023-04-13T00:28:27.378Z,6.14
2023-04-13T00:29:28.478Z,6.11
2023-04-13T00:30:27.612Z,6.10
2023-04-13T00:31:27.896Z,6.13
2023-04-13T00:32:29.129Z,6.14
2023-04-13T00:33:28.283Z,6.19
2023-04-13T00:34:29.428Z,6.19
2023-04-13T00:35:32.511Z,6.22
2023-04-13T00:36:28.731Z,6.21
2023-04-13T00:37:30.838Z,6.18
2023-04-13T00:38:29.026Z,6.14
2023-04-13T00:39:30.800Z,6.10
2023-04-13T00:40:31.464Z,6.07
2023-04-13T00:41:32.075Z,6.04
2023-04-13T00:42:30.783Z,6.04
2023-04-13T00:43:30.597Z,6.01
2023-04-13T00:44:30.372Z,5.98
2023-04-13T00:45:30.543Z,5.96
2023-04-13T00:46:32.856Z,5.93
2023-04-13T00:47:31.189Z,5.92
2023-04-13T00:48:31.352Z,5.91
2023-04-13T00:49:31.512Z,5.91
2023-04-13T00:50:33.194Z,5.92
2023-04-13T00:51:33.807Z,5.92
2023-04-13T00:52:34.053Z,5.93
2023-04-13T00:53:32.224Z,5.93
2023-04-13T00:54:32.392Z,5.93
2023-04-13T00:55:32.536Z,5.91
2023-04-13T00:56:34.665Z,5.88
2023-04-13T00:57:32.829Z,5.83
2023-04-13T00:58:34.095Z,5.82
2023-04-13T00:59:33.379Z,5.82
2023-04-13T01:00:34.503Z,5.88
2023-04-13T01:01:33.749Z,5.85
2023-04-13T01:02:34.451Z,5.86
2023-04-13T01:03:34.247Z,5.86
2023-04-13T01:04:35.398Z,5.88
2023-04-13T01:05:37.111Z,5.92
2023-04-13T01:06:36.255Z,5.91
2023-04-13T01:07:34.963Z,5.88
2023-04-13T01:08:35.118Z,5.88
2023-04-13T01:09:35.655Z,5.86
2023-04-13T01:10:35.315Z,5.86
2023-04-13T01:11:35.509Z,5.85
2023-04-13T01:12:37.612Z,5.82
2023-04-13T01:13:36.592Z,5.78
2023-04-13T01:14:36.296Z,5.75
2023-04-13T01:15:36.487Z,5.78
2023-04-13T01:16:36.666Z,5.81
2023-04-13T01:17:36.990Z,5.86
2023-04-13T01:18:37.159Z,5.85
2023-04-13T01:19:37.366Z,5.82
2023-04-13T01:20:39.539Z,5.82
2023-04-13T01:21:39.647Z,5.81
2023-04-13T01:22:38.919Z,5.82
2023-04-13T01:23:38.280Z,5.81
2023-04-13T01:24:40.257Z,5.83
2023-04-13T01:25:40.337Z,5.85
2023-04-13T01:26:41.032Z,5.85
2023-04-13T01:27:39.236Z,5.85
2023-04-13T01:28:39.377Z,5.85
2023-04-13T01:29:39.535Z,5.82
2023-04-13T01:30:39.704Z,5.81
2023-04-13T01:31:41.863Z,5.83
2023-04-13T01:32:41.067Z,5.85
2023-04-13T01:33:41.364Z,5.88
2023-04-13T01:34:40.581Z,5.91
2023-04-13T01:35:42.698Z,5.91
2023-04-13T01:36:41.524Z,5.93
2023-04-13T01:37:41.208Z,5.96
2023-04-13T01:38:41.429Z,5.95
2023-04-13T01:39:41.596Z,5.96
2023-04-13T01:40:44.681Z,5.95
2023-04-13T01:41:43.771Z,5.95
2023-04-13T01:42:42.954Z,5.95
2023-04-13T01:43:42.125Z,5.96
2023-04-13T01:44:44.255Z,5.95
2023-04-13T01:45:42.438Z,5.95
2023-04-13T01:46:43.862Z,5.96
2023-04-13T01:47:43.107Z,6.00
2023-04-13T01:48:43.284Z,5.96
2023-04-13T01:49:43.484Z,5.95
2023-04-13T01:50:45.700Z,5.91
2023-04-13T01:51:44.777Z,5.89
2023-04-13T01:52:44.937Z,5.91
2023-04-13T01:53:44.959Z,5.96
2023-04-13T01:54:46.637Z,5.98
2023-04-13T01:55:45.301Z,6.00
2023-04-13T01:56:44.510Z,6.03
2023-04-13T01:57:44.786Z,6.03
2023-04-13T01:58:45.937Z,6.01
2023-04-13T01:59:45.081Z,6.01
2023-04-13T02:00:47.331Z,6.00
2023-04-13T02:01:46.703Z,6.04
2023-04-13T02:02:50.018Z,6.04
2023-04-13T02:03:46.647Z,6.04
2023-04-13T02:04:46.501Z,6.06
2023-04-13T02:05:47.694Z,6.07
2023-04-13T02:06:48.798Z,6.03
2023-04-13T02:07:47.127Z,6.04
2023-04-13T02:08:51.134Z,6.04
2023-04-13T02:09:47.585Z,6.01
2023-04-13T02:10:47.793Z,6.01
2023-04-13T02:11:47.962Z,6.03
2023-04-13T02:12:48.331Z,6.01
2023-04-13T02:13:49.961Z,6.06
2023-04-13T02:14:51.322Z,6.09
2023-04-13T02:15:49.283Z,6.11
2023-04-13T02:16:50.478Z,6.13
2023-04-13T02:17:50.785Z,6.16
2023-04-13T02:18:50.904Z,6.14
2023-04-13T02:19:50.100Z,6.10
2023-04-13T02:20:50.327Z,6.09
2023-04-13T02:21:51.151Z,6.07
2023-04-13T02:22:50.813Z,6.06
2023-04-13T02:23:51.105Z,6.06
2023-04-13T02:24:51.248Z,6.14
2023-04-13T02:25:52.463Z,6.16
2023-04-13T02:26:51.619Z,6.11
2023-04-13T02:27:53.313Z,6.07
2023-04-13T02:28:51.959Z,6.04
2023-04-13T02:29:52.331Z,6.04
2023-04-13T02:30:52.551Z,6.04
2023-04-13T02:31:53.716Z,6.01
2023-04-13T02:32:53.024Z,5.93
2023-04-13T02:33:54.554Z,6.00
2023-04-13T02:34:54.712Z,6.06
2023-04-13T02:35:54.108Z,6.09
2023-04-13T02:36:55.587Z,6.11
2023-04-13T02:37:54.710Z,6.11
2023-04-13T02:38:54.926Z,6.13
2023-04-13T02:39:57.035Z,6.14
2023-04-13T02:40:55.183Z,6.14
2023-04-13T02:41:55.633Z,6.16
2023-04-13T02:42:56.804Z,6.21
2023-04-13T02:43:57.298Z,6.26
2023-04-13T02:44:57.713Z,6.22
2023-04-13T02:45:56.432Z,6.16
2023-04-13T02:46:57.605Z,6.10
2023-04-13T02:47:56.916Z,6.14
2023-04-13T02:48:58.227Z,6.10
2023-04-13T02:49:59.346Z,6.10
2023-04-13T02:50:57.677Z,6.07
2023-04-13T02:51:58.989Z,6.03
2023-04-13T02:52:58.156Z,6.01
2023-04-13T02:53:58.379Z,5.96
2023-04-13T02:54:58.672Z,5.93
2023-04-13T02:55:59.884Z,5.89
2023-04-13T02:57:01.049Z,5.91
2023-04-13T02:58:00.734Z,5.93
2023-04-13T02:58:59.266Z,5.98
2023-04-13T03:00:00.388Z,6.01
2023-04-13T03:00:59.651Z,6.03
2023-04-13T03:01:59.915Z,6.00
2023-04-13T03:03:01.641Z,5.96
2023-04-13T03:04:02.375Z,5.98
2023-04-13T03:05:00.694Z,6.00
2023-04-13T03:06:12.747Z,6.04
2023-04-13T03:07:01.382Z,6.10
2023-04-13T03:08:02.884Z,6.13
2023-04-13T03:09:01.578Z,6.19
2023-04-13T03:10:01.826Z,6.21
2023-04-13T03:11:02.109Z,6.16
2023-04-13T03:12:03.795Z,6.14
2023-04-13T03:13:03.208Z,6.16
2023-04-13T03:14:04.311Z,6.14
2023-04-13T03:15:03.776Z,6.10
2023-04-13T03:16:05.887Z,6.11
2023-04-13T03:17:05.834Z,6.11
2023-04-13T03:18:05.555Z,6.11
2023-04-13T03:19:04.911Z,6.21
2023-04-13T03:20:05.087Z,6.19
2023-04-13T03:21:05.287Z,6.18
2023-04-13T03:22:06.014Z,6.16
2023-04-13T03:23:05.769Z,6.14
2023-04-13T03:24:05.904Z,6.13
2023-04-13T03:25:06.631Z,6.13
2023-04-13T03:26:06.374Z,6.10
2023-04-13T03:27:06.589Z,6.13
2023-04-13T03:28:06.824Z,6.18
2023-04-13T03:29:07.024Z,6.19
2023-04-13T03:30:07.245Z,6.22
2023-04-13T03:31:07.452Z,6.19
2023-04-13T03:32:07.518Z,6.21
2023-04-13T03:33:07.833Z,6.18
2023-04-13T03:34:07.430Z,6.18
2023-04-13T03:35:08.250Z,6.16
2023-04-13T03:36:09.104Z,6.19
2023-04-13T03:37:09.432Z,6.19
2023-04-13T03:38:09.194Z,6.19
2023-04-13T03:39:09.411Z,6.16
2023-04-13T03:40:09.580Z,6.13
2023-04-13T03:41:09.767Z,6.13
2023-04-13T03:42:10.103Z,6.18
2023-04-13T03:43:10.913Z,6.16
2023-04-13T03:44:10.664Z,6.19
2023-04-13T03:45:10.817Z,6.21
2023-04-13T03:46:11.276Z,6.22
2023-04-13T03:47:11.472Z,6.25
2023-04-13T03:48:11.360Z,6.29
2023-04-13T03:49:12.026Z,6.30
2023-04-13T03:50:12.192Z,6.30
2023-04-13T03:51:11.428Z,6.30
2023-04-13T03:52:11.609Z,6.35
2023-04-13T03:53:11.824Z,6.35
2023-04-13T03:54:13.110Z,6.32
2023-04-13T03:55:12.367Z,6.32
2023-04-13T03:56:13.522Z,6.36
2023-04-13T03:57:12.701Z,6.40
2023-04-13T03:58:13.827Z,6.40
2023-04-13T03:59:13.160Z,6.50
2023-04-13T04:00:13.431Z,6.62
2023-04-13T04:01:15.691Z,6.65
2023-04-13T04:02:14.071Z,6.66
2023-04-13T04:03:15.225Z,6.69
2023-04-13T04:04:16.650Z,6.77
2023-04-13T04:05:14.575Z,6.84
2023-04-13T04:06:17.851Z,6.86
2023-04-13T04:07:15.004Z,6.90
2023-04-13T04:08:15.414Z,6.91
2023-04-13T04:09:15.619Z,6.90
2023-04-13T04:10:15.758Z,6.91
2023-04-13T04:11:15.903Z,6.97
2023-04-13T04:12:16.072Z,7.05
2023-04-13T04:13:16.382Z,7.08
2023-04-13T04:14:17.598Z,7.07
2023-04-13T04:15:18.302Z,7.01
2023-04-13T04:16:18.024Z,7.02
2023-04-13T04:17:19.236Z,7.07
2023-04-13T04:18:18.286Z,7.13
2023-04-13T04:19:17.489Z,7.17
2023-04-13T04:20:17.652Z,7.23
2023-04-13T04:21:17.904Z,7.24
2023-04-13T04:22:18.101Z,7.23
2023-04-13T04:23:20.036Z,7.20
2023-04-13T04:24:18.301Z,7.19
2023-04-13T04:25:18.578Z,7.19
2023-04-13T04:26:19.767Z,7.22
2023-04-13T04:27:20.915Z,7.23
2023-04-13T04:28:19.115Z,7.22
2023-04-13T04:29:20.788Z,7.19
2023-04-13T04:30:21.900Z,7.19
2023-04-13T04:31:19.782Z,7.19
2023-04-13T04:32:20.968Z,7.20
2023-04-13T04:33:21.196Z,7.17
2023-04-13T04:34:21.275Z,7.16
2023-04-13T04:35:20.480Z,7.16
2023-04-13T04:36:22.382Z,7.16
2023-04-13T04:37:21.101Z,7.16
2023-04-13T04:38:21.644Z,7.16
2023-04-13T04:39:22.513Z,7.17
2023-04-13T04:40:21.448Z,7.15
2023-04-13T04:41:23.590Z,7.15
2023-04-13T04:42:23.774Z,7.15
2023-04-13T04:43:22.971Z,7.16
2023-04-13T04:44:24.105Z,7.17
2023-04-13T04:45:24.272Z,7.19
2023-04-13T04:46:24.444Z,7.20
2023-04-13T04:47:23.743Z,7.17
2023-04-13T04:48:23.770Z,7.15
2023-04-13T04:49:22.924Z,7.13
2023-04-13T04:50:25.031Z,7.12
2023-04-13T04:51:23.240Z,7.12
2023-04-13T04:52:25.083Z,7.09
2023-04-13T04:53:23.873Z,7.12
2023-04-13T04:54:25.126Z,7.09
2023-04-13T04:55:24.856Z,7.08
2023-04-13T04:56:26.028Z,7.12
2023-04-13T04:57:24.719Z,7.12
2023-04-13T04:58:24.953Z,7.13
2023-04-13T04:59:25.125Z,7.13
2023-04-13T05:00:27.289Z,7.12
2023-04-13T05:01:25.465Z,7.08
2023-04-13T05:02:25.651Z,7.12
2023-04-13T05:03:25.912Z,7.17
2023-04-13T05:04:26.146Z,7.20
2023-04-13T05:05:28.036Z,7.23
2023-04-13T05:06:26.872Z,7.22
2023-04-13T05:07:27.032Z,7.24
2023-04-13T05:08:27.192Z,7.32
2023-04-13T05:09:27.368Z,7.34
2023-04-13T05:10:28.556Z,7.37
2023-04-13T05:11:27.741Z,7.38
2023-04-13T05:12:27.881Z,7.38
2023-04-13T05:13:28.042Z,7.40
2023-04-13T05:14:29.206Z,7.38
2023-04-13T05:15:28.463Z,7.38
2023-04-13T05:16:28.718Z,7.40
2023-04-13T05:17:29.004Z,7.38
2023-04-13T05:18:29.180Z,7.40
2023-04-13T05:19:31.463Z,7.44
2023-04-13T05:20:31.568Z,7.47
2023-04-13T05:21:29.752Z,7.52
2023-04-13T05:22:29.874Z,7.58
2023-04-13T05:23:30.984Z,7.66
2023-04-13T05:24:30.182Z,7.66
2023-04-13T05:25:31.311Z,7.66
2023-04-13T05:26:31.920Z,7.72
2023-04-13T05:27:30.530Z,7.77
2023-04-13T05:28:30.733Z,7.78
2023-04-13T05:29:32.027Z,7.79
2023-04-13T05:30:31.149Z,7.78
2023-04-13T05:31:31.320Z,7.82
2023-04-13T05:32:31.554Z,7.85
2023-04-13T05:33:31.729Z,7.94
2023-04-13T05:34:34.812Z,7.96
2023-04-13T05:35:32.953Z,7.92
2023-04-13T05:36:32.056Z,7.89
2023-04-13T05:37:32.290Z,7.89
2023-04-13T05:38:32.592Z,7.85
2023-04-13T05:39:33.757Z,7.87
2023-04-13T05:40:33.131Z,7.87
2023-04-13T05:41:34.140Z,7.85
2023-04-13T05:42:34.140Z,7.87
2023-04-13T05:43:33.822Z,7.87
2023-04-13T05:44:34.990Z,7.87
2023-04-13T05:45:34.344Z,7.85
2023-04-13T05:46:35.990Z,7.84
2023-04-13T05:47:34.718Z,7.85
2023-04-13T05:48:35.099Z,7.85
2023-04-13T05:49:35.339Z,7.84
2023-04-13T05:50:36.990Z,7.84
2023-04-13T05:51:35.669Z,7.84
2023-04-13T05:52:35.891Z,7.82
2023-04-13T05:53:36.177Z,7.81
2023-04-13T05:54:38.438Z,7.82
2023-04-13T05:55:37.599Z,7.84
2023-04-13T05:56:37.825Z,7.92
2023-04-13T05:57:37.063Z,7.96
2023-04-13T05:58:39.204Z,8.02
2023-04-13T05:59:37.342Z,8.10
2023-04-13T06:00:38.515Z,8.14
2023-04-13T06:01:38.661Z,8.18
2023-04-13T06:02:37.957Z,8.25
2023-04-13T06:03:38.432Z,8.28
2023-04-13T06:04:39.531Z,8.30
2023-04-13T06:05:39.148Z,8.28
2023-04-13T06:06:38.825Z,8.30
2023-04-13T06:07:39.160Z,8.32
2023-04-13T06:08:40.185Z,8.30
2023-04-13T06:09:39.385Z,8.28
2023-04-13T06:10:39.749Z,8.30
2023-04-13T06:11:59.315Z,8.25
2023-04-13T06:12:42.127Z,8.20
2023-04-13T06:13:40.420Z,8.17
2023-04-13T06:14:40.660Z,8.18
2023-04-13T06:15:41.805Z,8.20
2023-04-13T06:16:42.401Z,8.18
2023-04-13T06:17:41.252Z,8.17
2023-04-13T06:18:41.539Z,8.20
2023-04-13T06:19:41.714Z,8.21
2023-04-13T06:20:41.899Z,8.21
2023-04-13T06:21:42.078Z,8.26
2023-04-13T06:22:42.492Z,8.28
2023-04-13T06:23:44.141Z,8.26
2023-04-13T06:24:44.795Z,8.25
2023-04-13T06:25:44.944Z,8.25
2023-04-13T06:26:44.172Z,8.28
2023-04-13T06:27:45.385Z,8.29
2023-04-13T06:28:44.173Z,8.28
2023-04-13T06:29:43.807Z,8.25
2023-04-13T06:30:44.099Z,8.26
2023-04-13T06:31:46.313Z,8.29
2023-04-13T06:32:44.588Z,8.30
2023-04-13T06:33:44.713Z,8.30
2023-04-13T06:34:44.839Z,8.33
2023-04-13T06:35:46.986Z,8.30
2023-04-13T06:36:45.143Z,8.30
2023-04-13T06:37:45.284Z,8.32
2023-04-13T06:38:45.440Z,8.30
2023-04-13T06:39:48.140Z,8.33
2023-04-13T06:40:45.793Z,8.32
2023-04-13T06:41:46.406Z,8.30
2023-04-13T06:42:47.582Z,8.30
2023-04-13T06:43:47.632Z,8.30
2023-04-13T06:44:46.413Z,8.30
2023-04-13T06:45:46.594Z,8.30
2023-04-13T06:46:46.766Z,8.29
2023-04-13T06:47:47.916Z,8.30
2023-04-13T06:48:47.157Z,8.28
2023-04-13T06:49:49.802Z,8.29
2023-04-13T06:50:50.044Z,8.29
2023-04-13T06:51:49.708Z,8.28
2023-04-13T06:52:49.888Z,8.28
2023-04-13T06:53:48.028Z,8.28
2023-04-13T06:54:50.206Z,8.29
2023-04-13T06:55:50.330Z,8.29
2023-04-13T06:56:48.493Z,8.25
2023-04-13T06:57:48.655Z,8.28
2023-04-13T06:58:51.385Z,8.32
2023-04-13T06:59:50.878Z,8.35
2023-04-13T07:00:50.053Z,8.39
2023-04-13T07:01:50.254Z,8.44
2023-04-13T07:02:50.109Z,8.45
2023-04-13T07:03:49.621Z,8.45
2023-04-13T07:04:50.837Z,8.47
2023-04-13T07:05:53.735Z,8.47
2023-04-13T07:06:50.315Z,8.50
2023-04-13T07:07:50.464Z,8.51
2023-04-13T07:08:50.604Z,8.53
2023-04-13T07:09:52.937Z,8.54
2023-04-13T07:10:51.580Z,8.55
2023-04-13T07:11:51.460Z,8.58
2023-04-13T07:12:52.566Z,8.62
2023-04-13T07:13:53.739Z,8.65
2023-04-13T07:14:52.867Z,8.68
2023-04-13T07:15:54.114Z,8.68
2023-04-13T07:16:53.255Z,8.69
2023-04-13T07:17:54.064Z,8.73
2023-04-13T07:18:54.757Z,8.71
2023-04-13T07:19:53.921Z,8.72
2023-04-13T07:20:53.066Z,8.79
2023-04-13T07:21:53.240Z,8.79
2023-04-13T07:22:54.837Z,8.84
2023-04-13T07:23:53.645Z,8.90
2023-04-13T07:24:54.803Z,8.90
2023-04-13T07:25:55.909Z,8.90
2023-04-13T07:26:54.128Z,8.90
2023-04-13T07:27:55.218Z,8.94
2023-04-13T07:28:54.382Z,9.02
2023-04-13T07:29:56.047Z,9.06
2023-04-13T07:30:54.721Z,9.09
2023-04-13T07:31:55.575Z,9.10
2023-04-13T07:32:56.432Z,9.10
2023-04-13T07:33:55.580Z,9.16
2023-04-13T07:34:57.796Z,9.20
2023-04-13T07:36:02.338Z,9.24
2023-04-13T07:36:56.019Z,9.25
2023-04-13T07:37:56.146Z,9.16
2023-04-13T07:38:56.325Z,9.18
2023-04-13T07:39:56.778Z,9.24
2023-04-13T07:40:56.910Z,9.30
2023-04-13T07:41:58.051Z,9.38
2023-04-13T07:42:57.206Z,9.45
2023-04-13T07:43:57.323Z,9.48
2023-04-13T07:44:57.498Z,9.53
2023-04-13T07:45:58.579Z,9.57
2023-04-13T07:46:59.793Z,9.50
2023-04-13T07:47:59.003Z,9.46
2023-04-13T07:48:58.860Z,9.40
2023-04-13T07:50:00.029Z,9.38
2023-04-13T07:50:58.674Z,9.35
2023-04-13T07:51:59.085Z,9.35
2023-04-13T07:52:59.321Z,9.34
2023-04-13T07:54:01.476Z,9.27
2023-04-13T07:54:59.686Z,9.21
2023-04-13T07:55:59.824Z,9.30
2023-04-13T07:56:59.969Z,9.27
2023-04-13T07:58:00.129Z,9.28
2023-04-13T07:59:00.630Z,9.25
2023-04-13T08:00:00.595Z,9.25
2023-04-13T08:01:01.278Z,9.30
2023-04-13T08:02:03.009Z,9.31
2023-04-13T08:03:01.507Z,9.39
2023-04-13T08:04:03.483Z,9.43
2023-04-13T08:05:02.503Z,9.39
2023-04-13T08:06:09.582Z,9.31
2023-04-13T08:07:02.246Z,9.25
2023-04-13T08:08:03.031Z,9.21
2023-04-13T08:09:03.720Z,9.15
2023-04-13T08:10:04.839Z,9.15
2023-04-13T08:11:03.165Z,9.13
2023-04-13T08:12:04.295Z,9.21
2023-04-13T08:13:03.543Z,9.24
2023-04-13T08:14:03.816Z,9.20
2023-04-13T08:15:04.134Z,9.21
2023-04-13T08:16:04.426Z,9.21
2023-04-13T08:17:05.693Z,9.28
2023-04-13T08:18:06.876Z,9.28
2023-04-13T08:19:05.718Z,9.34
2023-04-13T08:20:07.372Z,9.39
2023-04-13T08:21:06.474Z,9.40
2023-04-13T08:22:05.627Z,9.42
2023-04-13T08:23:06.836Z,9.40
2023-04-13T08:24:05.965Z,9.50
2023-04-13T08:25:07.161Z,9.63
2023-04-13T08:26:06.312Z,9.57
2023-04-13T08:27:07.453Z,9.56
2023-04-13T08:28:06.715Z,9.57
2023-04-13T08:29:06.851Z,9.60
2023-04-13T08:30:07.092Z,9.78
2023-04-13T08:31:07.318Z,10.43
2023-04-13T08:32:07.467Z,10.76
2023-04-13T08:33:07.613Z,10.83
2023-04-13T08:34:09.766Z,11.09
2023-04-13T08:35:07.908Z,11.01
2023-04-13T08:36:11.679Z,11.09
2023-04-13T08:37:08.429Z,10.76
2023-04-13T08:38:08.621Z,10.51
2023-04-13T08:39:08.824Z,10.44
2023-04-13T08:40:11.146Z,11.44
2023-04-13T08:41:10.350Z,11.74
2023-04-13T08:42:09.497Z,11.35
2023-04-13T08:43:09.698Z,11.24
2023-04-13T08:44:09.877Z,11.11
2023-04-13T08:45:11.981Z,10.99
2023-04-13T08:46:10.242Z,10.73
2023-04-13T08:47:11.966Z,10.59
2023-04-13T08:48:10.768Z,10.55
2023-04-13T08:49:13.145Z,10.39
2023-04-13T08:50:11.345Z,10.26
2023-04-13T08:51:12.547Z,10.14
2023-04-13T08:52:15.757Z,10.14
2023-04-13T08:53:13.785Z,10.14
2023-04-13T08:54:11.951Z,10.19
2023-04-13T08:55:13.135Z,10.22
2023-04-13T08:56:12.312Z,10.32
2023-04-13T08:57:14.399Z,10.59
2023-04-13T08:58:13.519Z,10.66
2023-04-13T08:59:12.810Z,10.58
2023-04-13T09:00:12.998Z,10.63
2023-04-13T09:01:13.180Z,10.76
2023-04-13T09:02:14.366Z,10.89
2023-04-13T09:03:15.671Z,10.94
2023-04-13T09:04:14.167Z,11.06
2023-04-13T09:05:16.709Z,11.06
2023-04-13T09:06:14.700Z,10.98
2023-04-13T09:07:15.895Z,10.96
2023-04-13T09:08:15.192Z,10.92
2023-04-13T09:09:15.580Z,10.84
2023-04-13T09:10:15.740Z,10.71
2023-04-13T09:11:15.845Z,10.65
2023-04-13T09:12:15.946Z,10.68
2023-04-13T09:13:17.093Z,10.86
2023-04-13T09:14:18.001Z,11.01
2023-04-13T09:15:16.683Z,11.09
2023-04-13T09:16:17.862Z,11.02
2023-04-13T09:17:17.261Z,11.25
2023-04-13T09:18:17.977Z,11.02
2023-04-13T09:19:19.203Z,10.96
2023-04-13T09:20:21.894Z,11.17
2023-04-13T09:21:20.146Z,11.78
2023-04-13T09:22:19.749Z,11.75
2023-04-13T09:23:18.576Z,12.04
2023-04-13T09:24:19.288Z,12.05
2023-04-13T09:25:19.424Z,12.09
2023-04-13T09:26:18.569Z,12.04
2023-04-13T09:27:18.706Z,12.19
2023-04-13T09:28:18.915Z,11.94
2023-04-13T09:29:19.045Z,11.75
2023-04-13T09:30:21.120Z,11.54
2023-04-13T09:31:21.436Z,11.31
2023-04-13T09:32:19.709Z,11.97
2023-04-13T09:33:20.893Z,12.60
2023-04-13T09:34:20.027Z,12.89
2023-04-13T09:35:20.142Z,12.21
2023-04-13T09:36:22.338Z,11.65
2023-04-13T09:37:20.511Z,11.20
2023-04-13T09:38:20.614Z,11.39
2023-04-13T09:39:22.684Z,11.90
2023-04-13T09:40:20.890Z,12.45
2023-04-13T09:41:21.151Z,12.60
2023-04-13T09:42:24.773Z,13.07
2023-04-13T09:43:21.469Z,13.07
2023-04-13T09:44:23.550Z,13.12
2023-04-13T09:45:21.718Z,12.82
2023-04-13T09:46:23.077Z,13.17
2023-04-13T09:47:22.267Z,13.71
2023-04-13T09:48:24.352Z,13.73
2023-04-13T09:49:24.653Z,13.67
2023-04-13T09:50:23.762Z,13.71
2023-04-13T09:51:24.843Z,13.52
2023-04-13T09:52:23.917Z,13.65
2023-04-13T09:53:25.748Z,13.87
2023-04-13T09:54:23.429Z,13.91
2023-04-13T09:55:24.485Z,13.95
2023-04-13T09:56:24.290Z,13.67
2023-04-13T09:57:24.845Z,13.77
2023-04-13T09:58:25.940Z,13.76
2023-04-13T09:59:27.234Z,13.89
2023-04-13T10:00:25.301Z,13.73
2023-04-13T10:01:24.524Z,13.73
2023-04-13T10:02:25.987Z,14.01
2023-04-13T10:03:24.945Z,14.27
2023-04-13T10:04:25.334Z,14.01
2023-04-13T10:05:28.900Z,13.96
2023-04-13T10:06:26.692Z,13.99
2023-04-13T10:07:27.433Z,13.54
2023-04-13T10:09:26.131Z,13.79
2023-04-13T10:10:26.252Z,14.14
2023-04-13T10:11:26.471Z,14.17
2023-04-13T10:12:27.739Z,13.98
2023-04-13T10:13:27.762Z,14.13
2023-04-13T10:14:27.425Z,14.01
2023-04-13T10:15:27.744Z,13.87
2023-04-13T10:16:27.869Z,13.83
2023-04-13T10:17:29.620Z,13.84
2023-04-13T10:18:30.916Z,13.99
2023-04-13T10:19:28.629Z,14.16
2023-04-13T10:20:28.708Z,14.06
2023-04-13T10:21:29.725Z,14.27
2023-04-13T10:22:28.921Z,14.21
2023-04-13T10:23:31.160Z,14.31
2023-04-13T10:24:31.211Z,14.13
2023-04-13T10:25:33.563Z,13.74
2023-04-13T10:26:31.488Z,13.88
2023-04-13T10:27:29.634Z,14.06
2023-04-13T10:28:29.748Z,14.16
2023-04-13T10:29:31.234Z,13.88
2023-04-13T10:30:30.006Z,13.54
2023-04-13T10:31:32.100Z,13.84
2023-04-13T10:32:31.989Z,13.99
2023-04-13T10:33:30.156Z,14.19
2023-04-13T10:34:30.251Z,14.19
2023-04-13T10:35:33.889Z,14.07
2023-04-13T10:36:30.487Z,14.37
2023-04-13T10:37:33.296Z,14.80
2023-04-13T10:38:30.886Z,15.27
2023-04-13T10:39:32.971Z,14.90
2023-04-13T10:40:32.022Z,14.29
2023-04-13T10:41:32.092Z,13.80
2023-04-13T10:42:39.256Z,13.00
2023-04-13T10:43:32.183Z,12.52
2023-04-13T10:45:32.683Z,12.37
2023-04-13T10:46:34.392Z,12.37
2023-04-13T10:47:32.076Z,12.31
2023-04-13T10:48:32.238Z,12.11
2023-04-13T10:49:32.394Z,12.11
2023-04-13T10:50:34.508Z,12.15
2023-04-13T10:51:32.742Z,12.24
2023-04-13T10:52:32.927Z,12.26
2023-04-13T10:53:33.048Z,12.12
2023-04-13T10:54:33.201Z,12.01
2023-04-13T10:55:34.220Z,11.99
2023-04-13T10:56:34.097Z,12.04
2023-04-13T10:57:34.850Z,12.09
2023-04-13T10:58:33.995Z,12.19
2023-04-13T10:59:45.167Z,12.29
2023-04-13T11:00:44.744Z,12.44
2023-04-13T11:01:37.139Z,12.42
2023-04-13T11:02:34.899Z,12.23
2023-04-13T11:03:37.117Z,12.15
2023-04-13T11:04:37.578Z,12.15
2023-04-13T11:05:39.518Z,12.05
2023-04-13T11:06:38.412Z,11.93
2023-04-13T11:07:36.567Z,11.99
2023-04-13T11:08:37.894Z,12.01
2023-04-13T11:09:36.524Z,12.02
2023-04-13T11:10:37.105Z,12.02
2023-04-13T11:11:36.873Z,11.99
2023-04-13T11:12:37.172Z,12.02
2023-04-13T11:13:39.268Z,12.04
2023-04-13T11:14:38.352Z,12.08
2023-04-13T11:15:38.992Z,12.11
2023-04-13T11:16:37.735Z,12.15
2023-04-13T11:17:38.063Z,12.13
2023-04-13T11:18:38.230Z,12.08
2023-04-13T11:19:40.301Z,12.05
2023-04-13T11:20:40.054Z,12.11
2023-04-13T11:21:39.603Z,12.26
2023-04-13T11:23:39.987Z,12.79
2023-04-13T11:24:41.141Z,13.22
2023-04-13T11:25:41.251Z,13.41
2023-04-13T11:26:42.239Z,13.36
2023-04-13T11:27:39.974Z,13.25
2023-04-13T11:28:41.052Z,13.12
2023-04-13T11:29:40.199Z,12.99
2023-04-13T11:30:41.779Z,12.93
2023-04-13T11:31:40.665Z,12.89
2023-04-13T11:32:40.983Z,12.92
2023-04-13T11:33:41.141Z,12.99
2023-04-13T11:34:41.339Z,12.82
2023-04-13T11:35:42.640Z,12.87
2023-04-13T11:36:41.785Z,13.07
2023-04-13T11:37:41.949Z,13.07
2023-04-13T11:38:44.070Z,13.43
2023-04-13T11:39:42.215Z,13.14
2023-04-13T11:40:44.452Z,13.21
2023-04-13T11:41:42.541Z,13.15
2023-04-13T11:42:44.632Z,13.12
2023-04-13T11:43:43.729Z,13.17
2023-04-13T11:44:42.902Z,13.30
2023-04-13T11:45:44.610Z,13.52
2023-04-13T11:46:44.327Z,13.51
2023-04-13T11:47:43.579Z,13.69
2023-04-13T11:48:46.262Z,13.79
2023-04-13T11:49:43.859Z,13.77
2023-04-13T11:50:44.139Z,14.46
2023-04-13T11:51:44.567Z,14.64
2023-04-13T11:52:44.705Z,14.39
2023-04-13T11:53:45.059Z,14.12
2023-04-13T11:54:47.147Z,14.17
2023-04-13T11:55:53.428Z,13.94
2023-04-13T11:56:48.589Z,13.87
2023-04-13T11:57:47.489Z,13.71
2023-04-13T11:58:48.046Z,13.69
2023-04-13T11:59:48.602Z,13.80
2023-04-13T12:00:47.193Z,14.16
2023-04-13T12:01:50.272Z,14.53
2023-04-13T12:03:00.073Z,15.02
2023-04-13T12:04:01.618Z,15.01
2023-04-13T12:04:47.837Z,14.39
2023-04-13T12:05:55.717Z,14.06
2023-04-13T12:06:47.754Z,13.88
2023-04-13T12:07:47.575Z,13.88
2023-04-13T12:08:54.350Z,13.63
2023-04-13T12:11:11.320Z,13.70
2023-04-13T12:12:02.275Z,13.83
2023-04-13T12:12:53.154Z,14.07
2023-04-13T12:14:04.969Z,14.50
2023-04-13T12:15:00.525Z,14.54
2023-04-13T12:16:05.590Z,14.38
2023-04-13T12:17:57.349Z,14.74
2023-04-13T12:18:52.252Z,14.74
2023-04-13T12:19:49.249Z,15.03
2023-04-13T12:20:49.909Z,15.27
2023-04-13T12:21:49.379Z,15.41
2023-04-13T12:22:57.615Z,15.20
2023-04-13T12:23:49.617Z,15.26
2023-04-13T12:25:52.098Z,15.06
2023-04-13T12:27:50.449Z,14.52
2023-04-13T12:28:51.075Z,14.24
2023-04-13T12:29:50.924Z,13.99
2023-04-13T12:30:52.101Z,14.09
2023-04-13T12:31:51.470Z,14.09
2023-04-13T12:32:51.736Z,14.16
2023-04-13T12:33:51.870Z,14.31
2023-04-13T12:34:53.053Z,14.35
2023-04-13T12:35:57.817Z,14.54
2023-04-13T12:36:52.458Z,14.80
2023-04-13T12:37:54.651Z,15.01
2023-04-13T12:38:52.872Z,15.13
2023-04-13T12:39:54.961Z,15.35
2023-04-13T12:40:53.977Z,15.08
2023-04-13T12:41:54.065Z,14.95
2023-04-13T12:42:55.185Z,14.88
2023-04-13T12:43:53.288Z,14.94
2023-04-13T12:44:53.635Z,15.08
2023-04-13T12:45:53.793Z,14.95
2023-04-13T12:46:53.884Z,14.56
2023-04-13T12:47:54.062Z,13.98
2023-04-13T12:48:56.300Z,13.69
2023-04-13T12:49:55.640Z,13.71
2023-04-13T12:50:54.786Z,13.87
2023-04-13T12:51:54.924Z,13.76
2023-04-13T12:52:56.044Z,13.70
2023-04-13T12:53:55.173Z,13.71
2023-04-13T12:54:56.277Z,13.61
2023-04-13T12:55:55.518Z,13.49
2023-04-13T12:56:55.698Z,13.38
2023-04-13T12:57:55.929Z,13.24
2023-04-13T12:58:58.226Z,13.24
2023-04-13T12:59:58.065Z,13.36
2023-04-13T13:00:57.049Z,13.30
2023-04-13T13:01:56.268Z,13.32
2023-04-13T13:03:10.481Z,13.33
2023-04-13T13:03:56.582Z,13.40
2023-04-13T13:04:56.952Z,13.46
2023-04-13T13:05:59.412Z,13.40
2023-04-13T13:06:57.691Z,13.41
2023-04-13T13:07:59.520Z,13.25
2023-04-13T13:08:59.242Z,13.32
2023-04-13T13:10:00.515Z,13.62
2023-04-13T13:10:58.695Z,14.10
2023-04-13T13:11:58.827Z,14.54
2023-04-13T13:12:59.534Z,14.84
2023-04-13T13:13:59.182Z,14.50
2023-04-13T13:14:59.300Z,14.27
2023-04-13T13:16:01.420Z,14.06
2023-04-13T13:16:59.589Z,13.87
2023-04-13T13:18:00.739Z,13.79
2023-04-13T13:18:59.931Z,13.70
2023-04-13T13:20:01.318Z,13.65